createdAt,value
2022-10-09T00:01:36.416Z,57.70
2022-10-09T00:04:05.615Z,57.50
2022-10-09T00:06:36.387Z,58.40
2022-10-09T00:09:05.727Z,58.30
2022-10-09T00:11:35.818Z,58.00
2022-10-09T00:14:05.777Z,57.90
2022-10-09T00:16:34.398Z,57.50
2022-10-09T00:19:04.848Z,57.00
2022-10-09T00:21:34.938Z,57.00
2022-10-09T00:24:06.217Z,58.60
2022-10-09T00:26:35.130Z,59.30
2022-10-09T00:29:04.298Z,60.20
2022-10-09T00:31:33.337Z,59.60
2022-10-09T00:34:01.934Z,59.50
2022-10-09T00:36:31.918Z,59.50
2022-10-09T00:39:00.643Z,58.50
2022-10-09T00:41:33.950Z,58.00
2022-10-09T00:44:05.182Z,58.10
2022-10-09T00:46:43.382Z,57.40
2022-10-09T00:49:22.063Z,58.30
2022-10-09T00:51:53.197Z,58.70
2022-10-09T00:54:26.625Z,58.40
2022-10-09T00:56:56.330Z,58.40
2022-10-09T00:59:26.487Z,58.90
2022-10-09T01:01:55.290Z,59.30
2022-10-09T01:04:23.958Z,58.60
2022-10-09T01:07:17.035Z,58.10
2022-10-09T01:09:56.923Z,57.40
2022-10-09T01:12:42.892Z,56.80
2022-10-09T01:15:19.691Z,57.00
2022-10-09T01:18:01.395Z,57.90
2022-10-09T01:20:42.657Z,59.20
2022-10-09T01:24:03.155Z,59.90
2022-10-09T01:27:02.831Z,59.80
2022-10-09T01:29:37.696Z,59.70
2022-10-09T01:32:10.665Z,59.90
2022-10-09T01:34:42.619Z,59.50
2022-10-09T01:37:14.912Z,58.60
2022-10-09T01:39:46.481Z,58.10
2022-10-09T01:42:19.385Z,58.00
2022-10-09T01:44:48.103Z,57.40
2022-10-09T01:47:19.219Z,56.50
2022-10-09T01:49:59.340Z,56.70
2022-10-09T01:52:44.385Z,56.90
2022-10-09T01:55:34.455Z,56.70
2022-10-09T01:58:14.656Z,56.80
2022-10-09T02:00:49.443Z,57.20
2022-10-09T02:03:20.077Z,57.30
2022-10-09T02:05:53.577Z,57.30
2022-10-09T02:08:25.189Z,56.50
2022-10-09T02:10:59.334Z,56.00
2022-10-09T02:13:30.925Z,56.00
2022-10-09T02:16:08.266Z,56.10
2022-10-09T02:18:41.728Z,56.10
2022-10-09T02:21:17.689Z,56.00
2022-10-09T02:23:50.130Z,56.00
2022-10-09T02:26:20.346Z,56.20
2022-10-09T02:28:50.885Z,56.90
2022-10-09T02:31:26.765Z,57.30
2022-10-09T02:34:00.613Z,58.60
2022-10-09T02:36:30.524Z,58.20
2022-10-09T02:39:00.088Z,57.50
2022-10-09T02:41:29.079Z,57.20
2022-10-09T02:43:59.040Z,57.90
2022-10-09T02:46:27.849Z,57.30
2022-10-09T02:48:56.521Z,56.90
2022-10-09T02:51:25.715Z,57.00
2022-10-09T02:53:55.626Z,57.00
2022-10-09T02:56:24.829Z,57.40
2022-10-09T02:58:53.434Z,58.80
2022-10-09T03:01:23.884Z,58.80
2022-10-09T03:03:52.464Z,58.20
2022-10-09T03:06:24.886Z,57.90
2022-10-09T03:08:54.658Z,57.90
2022-10-09T03:11:26.305Z,59.10
2022-10-09T03:13:56.283Z,60.20
2022-10-09T03:16:27.829Z,59.90
2022-10-09T03:18:58.406Z,59.80
2022-10-09T03:21:28.849Z,59.60
2022-10-09T03:23:57.742Z,59.80
2022-10-09T03:26:29.006Z,59.60
2022-10-09T03:28:57.974Z,60.10
2022-10-09T03:34:17.132Z,58.80
2022-10-09T03:36:45.846Z,58.30
2022-10-09T03:39:14.381Z,58.30
2022-10-09T03:41:42.894Z,57.90
2022-10-09T03:44:11.574Z,58.60
2022-10-09T03:46:41.466Z,58.10
2022-10-09T03:49:10.121Z,57.30
2022-10-09T03:51:38.907Z,57.10
2022-10-09T03:54:07.702Z,57.00
2022-10-09T03:56:36.283Z,56.70
2022-10-09T03:59:07.585Z,57.20
2022-10-09T04:01:36.508Z,57.30
2022-10-09T04:04:06.408Z,58.70
2022-10-09T04:06:35.193Z,58.30
2022-10-09T04:09:03.766Z,57.80
2022-10-09T04:11:32.318Z,57.90
2022-10-09T04:14:01.751Z,57.90
2022-10-09T04:16:30.391Z,57.50
2022-10-09T04:18:58.947Z,58.40
2022-10-09T04:21:29.315Z,58.30
2022-10-09T04:23:57.822Z,60.30
2022-10-09T04:26:26.665Z,61.10
2022-10-09T04:28:55.410Z,60.40
2022-10-09T04:31:24.040Z,59.40
2022-10-09T04:33:55.358Z,58.90
2022-10-09T04:36:24.721Z,59.30
2022-10-09T04:38:55.250Z,59.90
2022-10-09T04:41:23.885Z,60.30
2022-10-09T04:43:56.766Z,59.30
2022-10-09T04:46:25.944Z,60.60
2022-10-09T04:48:54.771Z,59.80
2022-10-09T04:51:23.359Z,59.90
2022-10-09T04:53:51.908Z,58.30
2022-10-09T04:56:23.136Z,57.50
2022-10-09T04:58:52.392Z,58.20
2022-10-09T05:01:24.291Z,59.10
2022-10-09T05:03:54.240Z,60.90
2022-10-09T05:06:24.780Z,60.60
2022-10-09T05:08:54.921Z,60.90
2022-10-09T05:11:26.857Z,61.10
2022-10-09T05:13:58.948Z,60.90
2022-10-09T05:16:31.590Z,60.70
2022-10-09T05:19:01.478Z,60.80
2022-10-09T05:21:31.133Z,60.00
2022-10-09T05:24:00.026Z,61.10
2022-10-09T05:26:30.268Z,60.60
2022-10-09T05:28:58.908Z,59.60
2022-10-09T05:31:30.272Z,59.40
2022-10-09T05:34:02.138Z,59.00
2022-10-09T05:36:30.950Z,58.40
2022-10-09T05:39:01.668Z,58.90
2022-10-09T05:41:31.598Z,60.50
2022-10-09T05:44:03.616Z,60.10
2022-10-09T05:46:32.737Z,62.30
2022-10-09T05:49:05.591Z,61.70
2022-10-09T05:51:37.306Z,61.00
2022-10-09T05:54:07.186Z,61.20
2022-10-09T05:56:40.189Z,61.40
2022-10-09T05:59:11.833Z,60.20
2022-10-09T06:01:43.705Z,60.90
2022-10-09T06:04:16.294Z,62.50
2022-10-09T06:06:47.608Z,61.10
2022-10-09T06:09:18.023Z,60.60
2022-10-09T06:11:48.152Z,60.70
2022-10-09T06:14:16.778Z,60.70
2022-10-09T06:16:47.019Z,60.70
2022-10-09T06:19:18.831Z,61.00
2022-10-09T06:21:49.211Z,60.90
2022-10-09T06:24:27.338Z,60.60
2022-10-09T06:26:59.209Z,60.20
2022-10-09T06:29:28.293Z,60.10
2022-10-09T06:31:56.806Z,59.10
2022-10-09T06:34:25.613Z,58.50
2022-10-09T06:36:54.384Z,59.00
2022-10-09T06:39:23.215Z,58.10
2022-10-09T06:41:51.758Z,59.00
2022-10-09T06:44:44.512Z,58.90
2022-10-09T06:47:13.242Z,58.70
2022-10-09T06:49:41.986Z,58.10
2022-10-09T06:52:10.485Z,58.70
2022-10-09T06:54:39.051Z,58.00
2022-10-09T06:57:07.803Z,58.80
2022-10-09T06:59:36.368Z,58.70
2022-10-09T07:02:06.350Z,58.50
2022-10-09T07:04:35.361Z,58.40
2022-10-09T07:07:03.890Z,56.40
2022-10-09T07:09:32.492Z,56.20
2022-10-09T07:12:01.330Z,56.40
2022-10-09T07:14:31.160Z,55.90
2022-10-09T07:16:59.687Z,56.20
2022-10-09T07:19:29.830Z,57.00
2022-10-09T07:21:58.427Z,57.40
2022-10-09T07:24:27.057Z,57.00
2022-10-09T07:26:57.453Z,56.60
2022-10-09T07:29:25.986Z,56.30
2022-10-09T07:31:54.707Z,55.90
2022-10-09T07:34:23.662Z,56.30
2022-10-09T07:36:53.567Z,56.40
2022-10-09T07:39:22.322Z,55.50
2022-10-09T07:41:52.601Z,56.10
2022-10-09T07:44:21.203Z,55.70
2022-10-09T07:46:51.419Z,55.40
2022-10-09T07:49:20.629Z,55.40
2022-10-09T07:51:49.189Z,54.90
2022-10-09T07:54:19.363Z,54.50
2022-10-09T07:56:48.077Z,56.20
2022-10-09T07:59:17.803Z,55.90
2022-10-09T08:01:46.433Z,56.80
2022-10-09T08:04:15.171Z,57.20
2022-10-09T08:06:43.863Z,56.70
2022-10-09T08:09:12.395Z,56.20
2022-10-09T08:11:42.529Z,56.20
2022-10-09T08:14:19.190Z,56.90
2022-10-09T08:16:48.694Z,56.90
2022-10-09T08:19:17.261Z,56.90
2022-10-09T08:21:45.991Z,57.50
2022-10-09T08:24:15.041Z,58.00
2022-10-09T08:26:45.414Z,57.80
2022-10-09T08:29:16.495Z,56.80
2022-10-09T08:31:46.349Z,56.20
2022-10-09T08:34:14.981Z,55.70
2022-10-09T08:36:43.682Z,54.50
2022-10-09T08:39:12.455Z,53.50
2022-10-09T08:41:48.523Z,53.10
2022-10-09T08:44:23.384Z,54.00
2022-10-09T08:47:03.468Z,55.80
2022-10-09T08:49:44.663Z,56.00
2022-10-09T08:52:29.222Z,53.70
2022-10-09T08:55:08.124Z,56.50
2022-10-09T08:57:38.071Z,57.40
2022-10-09T09:00:17.567Z,57.60
2022-10-09T09:03:42.817Z,56.90
2022-10-09T09:06:20.194Z,56.90
2022-10-09T09:09:01.134Z,56.20
2022-10-09T09:11:45.061Z,57.10
2022-10-09T09:14:37.916Z,55.60
2022-10-09T09:17:19.783Z,55.40
2022-10-09T09:20:04.542Z,54.90
2022-10-09T09:22:35.431Z,55.50
2022-10-09T09:25:21.901Z,54.30
2022-10-09T09:27:53.401Z,55.40
2022-10-09T09:30:29.606Z,55.10
2022-10-09T09:33:18.560Z,53.60
2022-10-09T09:36:00.095Z,53.40
2022-10-09T09:38:28.995Z,53.90
2022-10-09T09:40:57.607Z,53.00
2022-10-09T09:43:28.164Z,52.30
2022-10-09T09:46:00.948Z,52.40
2022-10-09T09:48:37.255Z,52.50
2022-10-09T09:51:28.201Z,52.40
2022-10-09T09:54:00.810Z,52.00
2022-10-09T09:57:07.039Z,51.70
2022-10-09T09:59:34.655Z,51.90
2022-10-09T10:02:13.889Z,51.80
2022-10-09T10:04:52.689Z,50.80
2022-10-09T10:07:34.171Z,51.10
2022-10-09T10:10:06.315Z,52.60
2022-10-09T10:12:40.543Z,52.20
2022-10-09T10:15:20.061Z,53.20
2022-10-09T10:17:58.341Z,53.30
2022-10-09T10:20:28.695Z,54.00
2022-10-09T10:23:00.184Z,56.20
2022-10-09T10:25:34.642Z,55.80
2022-10-09T10:28:14.771Z,53.90
2022-10-09T10:30:44.908Z,53.70
2022-10-09T10:33:23.554Z,53.60
2022-10-09T10:35:55.167Z,53.60
2022-10-09T10:38:32.070Z,52.60
2022-10-09T10:41:15.229Z,53.60
2022-10-09T10:43:49.352Z,54.10
2022-10-09T10:46:26.461Z,53.60
2022-10-09T10:48:59.930Z,54.00
2022-10-09T10:51:51.924Z,54.50
2022-10-09T10:54:40.606Z,54.10
2022-10-09T10:57:17.365Z,56.80
2022-10-09T11:00:00.768Z,55.80
2022-10-09T11:02:57.201Z,55.00
2022-10-09T11:05:52.327Z,54.00
2022-10-09T11:08:48.421Z,52.80
2022-10-09T11:11:28.518Z,52.90
2022-10-09T11:14:20.244Z,53.10
2022-10-09T11:17:06.756Z,54.60
2022-10-09T11:20:03.615Z,55.50
2022-10-09T11:22:58.699Z,55.30
2022-10-09T11:25:37.311Z,55.90
2022-10-09T11:28:14.991Z,56.10
2022-10-09T11:30:52.509Z,56.20
2022-10-09T11:33:33.938Z,54.10
2022-10-09T11:36:12.035Z,53.70
2022-10-09T11:38:48.514Z,53.10
2022-10-09T11:41:17.575Z,53.30
2022-10-09T11:44:05.393Z,52.70
2022-10-09T11:46:45.665Z,54.00
2022-10-09T11:49:25.456Z,53.20
2022-10-09T11:52:04.671Z,52.50
2022-10-09T11:54:35.403Z,52.30
2022-10-09T11:57:07.093Z,52.10
2022-10-09T11:59:42.264Z,51.10
2022-10-09T12:02:27.713Z,51.00
2022-10-09T12:04:56.990Z,51.70
2022-10-09T12:07:35.075Z,51.70
2022-10-09T12:10:10.237Z,51.30
2022-10-09T12:12:39.536Z,51.50
2022-10-09T12:15:26.099Z,51.00
2022-10-09T12:17:54.919Z,50.30
2022-10-09T12:20:27.722Z,49.00
2022-10-09T12:23:25.717Z,48.80
2022-10-09T12:25:54.808Z,49.30
2022-10-09T12:28:34.925Z,48.90
2022-10-09T12:31:15.397Z,48.80
2022-10-09T12:33:52.961Z,48.90
2022-10-09T12:36:26.513Z,49.80
2022-10-09T12:38:56.012Z,49.70
2022-10-09T12:41:31.144Z,48.00
2022-10-09T12:44:01.992Z,48.50
2022-10-09T12:46:37.601Z,47.80
2022-10-09T12:49:19.251Z,48.10
2022-10-09T12:51:58.012Z,48.60
2022-10-09T12:54:31.998Z,49.80
2022-10-09T12:57:06.615Z,49.10
2022-10-09T12:59:38.014Z,49.90
2022-10-09T13:02:16.697Z,50.70
2022-10-09T13:05:01.859Z,50.00
2022-10-09T13:07:35.678Z,50.50
2022-10-09T13:10:18.054Z,49.60
2022-10-09T13:12:55.345Z,48.90
2022-10-09T13:15:35.122Z,50.00
2022-10-09T13:18:21.030Z,49.10
2022-10-09T13:21:01.104Z,50.10
2022-10-09T13:23:34.183Z,49.00
2022-10-09T13:26:05.630Z,49.00
2022-10-09T13:28:35.922Z,49.30
2022-10-09T13:31:09.659Z,49.50
2022-10-09T13:33:38.732Z,48.90
2022-10-09T13:36:08.258Z,48.70
2022-10-09T13:38:36.942Z,48.40
2022-10-09T13:41:06.097Z,47.90
2022-10-09T13:43:36.044Z,49.80
2022-10-09T13:46:04.694Z,49.80
2022-10-09T13:48:33.878Z,49.20
2022-10-09T13:51:02.448Z,48.90
2022-10-09T13:53:31.022Z,48.60
2022-10-09T13:56:01.210Z,51.00
2022-10-09T13:58:31.238Z,50.70
2022-10-09T14:01:01.149Z,51.60
2022-10-09T14:03:30.014Z,51.70
2022-10-09T14:06:00.800Z,51.10
2022-10-09T14:08:29.718Z,50.90
2022-10-09T14:11:00.946Z,50.10
2022-10-09T14:13:30.716Z,51.50
2022-10-09T14:16:00.858Z,51.20
2022-10-09T14:18:29.390Z,50.00
2022-10-09T14:20:57.944Z,50.70
2022-10-09T14:23:26.864Z,50.70
2022-10-09T14:25:55.395Z,51.00
2022-10-09T14:28:24.090Z,51.30
2022-10-09T14:30:52.809Z,51.40
2022-10-09T14:33:22.711Z,50.60
2022-10-09T14:35:51.604Z,50.40
2022-10-09T14:38:20.154Z,50.40
2022-10-09T14:40:48.905Z,49.80
2022-10-09T14:43:17.852Z,49.20
2022-10-09T14:45:46.434Z,49.30
2022-10-09T14:48:15.145Z,49.80
2022-10-09T14:50:45.754Z,49.40
2022-10-09T14:53:14.402Z,49.00
2022-10-09T14:55:43.102Z,49.60
2022-10-09T14:58:11.637Z,49.20
2022-10-09T15:00:47.679Z,49.20
2022-10-09T15:03:16.533Z,49.60
2022-10-09T15:05:46.399Z,50.10
2022-10-09T15:08:14.941Z,50.00
2022-10-09T15:10:44.275Z,50.10
2022-10-09T15:13:12.781Z,49.90
2022-10-09T15:15:41.424Z,50.30
2022-10-09T15:18:10.279Z,50.10
2022-10-09T15:20:38.999Z,49.60
2022-10-09T15:23:08.878Z,49.00
2022-10-09T15:25:37.720Z,48.40
2022-10-09T15:28:06.706Z,48.90
2022-10-09T15:30:35.359Z,49.00
2022-10-09T15:33:04.307Z,49.10
2022-10-09T15:35:33.893Z,49.70
2022-10-09T15:38:02.691Z,49.40
2022-10-09T15:40:32.983Z,48.90
2022-10-09T15:43:01.497Z,49.10
2022-10-09T15:45:30.228Z,49.00
2022-10-09T15:47:58.729Z,49.20
2022-10-09T15:50:27.647Z,49.10
2022-10-09T15:52:57.678Z,48.50
2022-10-09T15:55:26.484Z,48.70
2022-10-09T15:57:56.606Z,48.60
2022-10-09T16:00:25.323Z,48.50
2022-10-09T16:02:53.863Z,48.50
2022-10-09T16:05:22.406Z,48.30
2022-10-09T16:07:51.122Z,48.30
2022-10-09T16:10:19.658Z,48.10
2022-10-09T16:12:48.725Z,48.00
2022-10-09T16:15:19.003Z,48.30
2022-10-09T16:17:48.857Z,48.40
2022-10-09T16:20:17.984Z,48.40
2022-10-09T16:22:46.818Z,48.40
2022-10-09T16:25:15.815Z,48.40
2022-10-09T16:27:44.565Z,48.50
2022-10-09T16:30:14.861Z,48.50
2022-10-09T16:32:44.867Z,48.40
2022-10-09T16:35:13.849Z,48.10
2022-10-09T16:37:42.399Z,48.00
2022-10-09T16:40:12.331Z,48.20
2022-10-09T16:42:40.939Z,48.20
2022-10-09T16:45:11.365Z,48.30
2022-10-09T16:47:40.481Z,48.40
2022-10-09T16:50:11.607Z,48.60
2022-10-09T16:52:40.526Z,48.70
2022-10-09T16:55:10.145Z,48.70
2022-10-09T16:57:38.681Z,48.60
2022-10-09T17:00:08.832Z,48.60
2022-10-09T17:02:37.439Z,48.50
2022-10-09T17:05:07.760Z,48.60
2022-10-09T17:07:37.634Z,48.70
2022-10-09T17:10:09.468Z,48.90
2022-10-09T17:12:38.141Z,49.00
2022-10-09T17:15:08.277Z,48.90
2022-10-09T17:17:38.452Z,49.00
2022-10-09T17:20:08.630Z,49.00
2022-10-09T17:22:38.524Z,49.10
2022-10-09T17:25:08.283Z,49.30
2022-10-09T17:27:36.897Z,49.50
2022-10-09T17:30:07.068Z,49.20
2022-10-09T17:32:35.619Z,49.30
2022-10-09T17:35:04.604Z,49.40
2022-10-09T17:37:33.391Z,49.50
2022-10-09T17:40:03.419Z,49.50
2022-10-09T17:42:31.994Z,49.50
2022-10-09T17:45:01.976Z,49.50
2022-10-09T17:47:31.834Z,49.60
2022-10-09T17:50:00.571Z,49.50
2022-10-09T17:52:29.190Z,49.30
2022-10-09T17:54:57.731Z,49.50
2022-10-09T17:57:28.081Z,49.50
2022-10-09T17:59:56.853Z,49.50
2022-10-09T18:02:25.395Z,49.30
2022-10-09T18:04:57.335Z,49.10
2022-10-09T18:07:26.344Z,49.20
2022-10-09T18:09:55.210Z,49.10
2022-10-09T18:12:23.810Z,49.10
2022-10-09T18:14:54.830Z,49.30
2022-10-09T18:17:23.596Z,49.30
2022-10-09T18:19:52.250Z,49.50
2022-10-09T18:22:20.852Z,49.50
2022-10-09T18:24:49.617Z,49.60
2022-10-09T18:27:18.153Z,49.60
2022-10-09T18:29:46.709Z,49.60
2022-10-09T18:32:16.946Z,49.60
2022-10-09T18:34:46.603Z,49.40
2022-10-09T18:37:16.137Z,49.50
2022-10-09T18:39:44.672Z,49.50
2022-10-09T18:42:13.252Z,49.80
2022-10-09T18:44:43.038Z,49.80
2022-10-09T18:47:19.832Z,50.60
2022-10-09T18:49:53.323Z,50.00
2022-10-09T18:52:22.193Z,50.70
2022-10-09T18:54:55.105Z,49.90
2022-10-09T18:57:27.617Z,49.80
2022-10-09T18:59:58.572Z,49.80
2022-10-09T19:02:28.541Z,49.70
2022-10-09T19:04:57.884Z,49.60
2022-10-09T19:07:26.594Z,49.40
2022-10-09T19:09:57.451Z,49.50
2022-10-09T19:12:26.573Z,49.60
2022-10-09T19:14:55.344Z,49.70
2022-10-09T19:17:23.996Z,49.80
2022-10-09T19:19:54.133Z,49.80
2022-10-09T19:22:24.015Z,49.70
2022-10-09T19:24:53.014Z,49.80
2022-10-09T19:27:25.737Z,49.80
2022-10-09T19:29:55.615Z,49.80
2022-10-09T19:32:24.238Z,49.70
2022-10-09T19:34:54.560Z,49.70
2022-10-09T19:37:26.082Z,49.60
2022-10-09T19:39:58.387Z,50.30
2022-10-09T19:42:27.217Z,49.40
2022-10-09T19:44:55.961Z,49.40
2022-10-09T19:47:24.644Z,49.40
2022-10-09T19:49:54.959Z,49.30
2022-10-09T19:52:23.860Z,49.40
2022-10-09T19:54:52.722Z,49.40
2022-10-09T19:57:21.341Z,49.40
2022-10-09T19:59:50.118Z,49.40
2022-10-09T20:02:18.698Z,49.40
2022-10-09T20:04:49.552Z,49.30
2022-10-09T20:07:19.545Z,49.30
2022-10-09T20:09:48.383Z,49.30
2022-10-09T20:12:17.862Z,49.20
2022-10-09T20:14:46.622Z,49.10
2022-10-09T20:17:15.366Z,49.10
2022-10-09T20:19:45.770Z,49.00
2022-10-09T20:22:14.493Z,48.70
2022-10-09T20:24:44.598Z,48.80
2022-10-09T20:27:13.199Z,48.90
2022-10-09T20:29:41.971Z,48.90
2022-10-09T20:32:12.207Z,48.80
2022-10-09T20:34:41.122Z,48.90
2022-10-09T20:37:09.801Z,48.90
2022-10-09T20:39:38.671Z,49.00
2022-10-09T20:42:09.893Z,49.10
2022-10-09T20:44:38.886Z,48.90
2022-10-09T20:47:07.698Z,48.80
2022-10-09T20:49:36.551Z,48.90
2022-10-09T20:52:05.360Z,48.90
2022-10-09T20:54:34.262Z,48.90
2022-10-09T20:57:02.890Z,48.70
2022-10-09T20:59:33.346Z,48.80
2022-10-09T21:02:02.018Z,49.60
2022-10-09T21:04:31.557Z,48.90
2022-10-09T21:07:00.273Z,49.00
2022-10-09T21:09:33.069Z,49.90
2022-10-09T21:12:02.464Z,49.50
2022-10-09T21:14:32.902Z,49.50
2022-10-09T21:17:01.585Z,49.50
2022-10-09T21:19:30.479Z,49.50
2022-10-09T21:21:59.072Z,49.20
2022-10-09T21:24:27.898Z,49.00
2022-10-09T21:26:56.758Z,48.90
2022-10-09T21:29:27.051Z,48.90
2022-10-09T21:31:56.926Z,48.90
2022-10-09T21:34:25.669Z,49.10
2022-10-09T21:37:19.789Z,49.20
2022-10-09T21:39:45.232Z,50.00
2022-10-09T21:42:13.832Z,49.30
2022-10-09T21:44:42.774Z,49.80
2022-10-09T21:47:18.771Z,49.00
2022-10-09T21:49:47.591Z,49.10
2022-10-09T21:52:16.293Z,48.90
2022-10-09T21:54:46.042Z,48.80
2022-10-09T21:57:14.607Z,48.90
2022-10-09T21:59:43.185Z,49.10
2022-10-09T22:02:13.258Z,49.20
2022-10-09T22:04:41.800Z,49.20
2022-10-09T22:07:10.472Z,50.10
2022-10-09T22:09:39.264Z,49.40
2022-10-09T22:12:07.846Z,49.30
2022-10-09T22:14:36.470Z,49.20
2022-10-09T22:17:05.226Z,49.10
2022-10-09T22:19:35.172Z,49.10
2022-10-09T22:22:04.069Z,49.10
2022-10-09T22:24:32.880Z,49.10
2022-10-09T22:27:01.881Z,49.20
2022-10-09T22:29:31.188Z,49.10
2022-10-09T22:32:00.093Z,49.00
2022-10-09T22:34:28.741Z,49.10
2022-10-09T22:36:58.940Z,49.10
2022-10-09T22:39:27.773Z,49.10
2022-10-09T22:41:56.602Z,49.00
2022-10-09T22:44:25.196Z,48.90
2022-10-09T22:46:53.994Z,48.90
2022-10-09T22:49:22.587Z,48.90
2022-10-09T22:51:51.239Z,48.90
2022-10-09T22:54:22.155Z,48.70
2022-10-09T22:56:50.815Z,48.50
2022-10-09T22:59:19.747Z,48.50
2022-10-09T23:01:53.355Z,49.30
2022-10-09T23:04:24.029Z,48.90
2022-10-09T23:06:54.955Z,49.10
2022-10-09T23:09:29.511Z,49.20
2022-10-09T23:12:00.652Z,49.30
2022-10-09T23:14:29.753Z,49.10
2022-10-09T23:16:58.282Z,49.00
2022-10-09T23:19:27.037Z,48.90
2022-10-09T23:21:55.563Z,48.80
2022-10-09T23:24:25.717Z,48.80
2022-10-09T23:26:54.279Z,48.90
2022-10-09T23:29:23.024Z,48.80
2022-10-09T23:31:54.274Z,48.80
2022-10-09T23:34:23.125Z,49.00
2022-10-09T23:36:51.709Z,49.00
2022-10-09T23:39:20.569Z,49.00
2022-10-09T23:41:50.510Z,48.90
2022-10-09T23:44:22.201Z,48.90
2022-10-09T23:46:51.808Z,48.70
2022-10-09T23:49:20.577Z,48.70
2022-10-09T23:51:49.125Z,48.70
2022-10-09T23:54:17.894Z,48.80
2022-10-09T23:56:46.512Z,48.50
2022-10-09T23:59:16.606Z,48.40
